createdAt,value
2022-11-27T00:00:14.512Z,93035.66
2022-11-27T00:02:41.183Z,93034.94
2022-11-27T00:05:08.133Z,93036.25
2022-11-27T00:07:34.667Z,93045.97
2022-11-27T00:10:01.139Z,93043.75
2022-11-27T00:12:27.601Z,93033.28
2022-11-27T00:14:55.691Z,93034.03
2022-11-27T00:17:22.254Z,93041.69
2022-11-27T00:19:48.725Z,93047.28
2022-11-27T00:22:15.177Z,93045.81
2022-11-27T00:24:43.484Z,93044.47
2022-11-27T00:27:10.592Z,93042.13
2022-11-27T00:29:37.030Z,93045.50
2022-11-27T00:32:06.436Z,93040.34
2022-11-27T00:34:32.926Z,93042.22
2022-11-27T00:36:59.407Z,93040.78
2022-11-27T00:39:26.005Z,93032.22
2022-11-27T00:41:52.451Z,93025.88
2022-11-27T00:44:18.926Z,93032.81
2022-11-27T00:46:45.895Z,93030.59
2022-11-27T00:49:14.536Z,93030.44
2022-11-27T00:51:41.604Z,93020.44
2022-11-27T00:54:08.120Z,93018.94
2022-11-27T00:56:38.375Z,93017.50
2022-11-27T00:59:06.869Z,93008.94
2022-11-27T01:01:38.989Z,93016.59
2022-11-27T01:04:07.816Z,93013.06
2022-11-27T01:06:34.758Z,93015.72
2022-11-27T01:09:01.680Z,93012.91
2022-11-27T01:11:31.020Z,93004.38
2022-11-27T01:14:00.474Z,93000.09
2022-11-27T01:16:29.553Z,93003.47
2022-11-27T01:18:58.124Z,93002.72
2022-11-27T01:21:26.170Z,93001.09
2022-11-27T01:23:54.081Z,92998.31
2022-11-27T01:26:20.858Z,93000.22
2022-11-27T01:28:47.915Z,92994.66
2022-11-27T01:31:17.295Z,92989.06
2022-11-27T01:33:45.224Z,92982.72
2022-11-27T01:36:14.298Z,92990.94
2022-11-27T01:38:41.471Z,92990.94
2022-11-27T01:41:19.508Z,92986.53
2022-11-27T01:43:56.274Z,92983.56
2022-11-27T01:46:28.655Z,92989.16
2022-11-27T01:49:20.844Z,92978.00
2022-11-27T01:51:56.207Z,92975.03
2022-11-27T01:54:27.035Z,92981.97
2022-11-27T01:56:59.365Z,92988.84
2022-11-27T01:59:26.022Z,92982.91
2022-11-27T02:01:52.573Z,92982.91
2022-11-27T02:04:19.660Z,92979.97
2022-11-27T02:06:46.343Z,92971.44
2022-11-27T02:09:13.390Z,92977.03
2022-11-27T02:11:44.946Z,92965.72
2022-11-27T02:14:14.384Z,92967.00
2022-11-27T02:16:56.906Z,92961.41
2022-11-27T02:19:38.574Z,92960.69
2022-11-27T02:22:08.083Z,92954.38
2022-11-27T02:24:59.027Z,92945.84
2022-11-27T02:27:44.624Z,92951.41
2022-11-27T02:30:11.105Z,92945.84
2022-11-27T02:32:49.183Z,92949.97
2022-11-27T02:35:48.606Z,92946.41
2022-11-27T02:38:30.143Z,92947.00
2022-11-27T02:41:04.853Z,92950.38
2022-11-27T02:43:37.716Z,92945.50
2022-11-27T02:46:07.049Z,92937.72
2022-11-27T02:48:42.513Z,92936.97
2022-11-27T02:51:12.288Z,92935.50
2022-11-27T02:53:46.563Z,92939.63
2022-11-27T02:56:17.547Z,92934.03
2022-11-27T02:58:47.306Z,92925.50
2022-11-27T03:01:16.007Z,92919.94
2022-11-27T03:03:47.727Z,92919.19
2022-11-27T03:06:20.044Z,92912.09
2022-11-27T03:08:53.279Z,92910.66
2022-11-27T03:11:19.820Z,92915.50
2022-11-27T03:13:53.644Z,92908.44
2022-11-27T03:16:47.907Z,92905.06
2022-11-27T03:19:23.635Z,92911.22
2022-11-27T03:21:57.594Z,92918.13
2022-11-27T03:24:24.810Z,92915.50
2022-11-27T03:26:51.595Z,92915.50
2022-11-27T03:29:23.664Z,92908.44
2022-11-27T03:31:50.199Z,92911.81
2022-11-27T03:34:17.037Z,92915.19
2022-11-27T03:36:43.628Z,92918.56
2022-11-27T03:39:10.103Z,92916.50
2022-11-27T03:41:42.548Z,92920.03
2022-11-27T03:44:30.591Z,92908.13
2022-11-27T03:47:21.486Z,92914.44
2022-11-27T03:50:09.210Z,92912.25
2022-11-27T03:52:41.698Z,92907.38
2022-11-27T03:55:26.432Z,92901.06
2022-11-27T03:58:06.175Z,92899.59
2022-11-27T04:00:37.610Z,92898.28
2022-11-27T04:03:04.645Z,92894.00
2022-11-27T04:05:31.286Z,92900.91
2022-11-27T04:07:57.782Z,92900.00
2022-11-27T04:10:24.280Z,92895.75
2022-11-27T04:12:50.731Z,92897.06
2022-11-27T04:15:17.244Z,92898.56
2022-11-27T04:17:43.670Z,92892.97
2022-11-27T04:20:12.692Z,92894.84
2022-11-27T04:22:39.130Z,92890.75
2022-11-27T04:25:06.067Z,92901.19
2022-11-27T04:27:32.626Z,92899.13
2022-11-27T04:29:59.087Z,92897.81
2022-11-27T04:32:25.543Z,92894.84
2022-11-27T04:34:52.092Z,92900.59
2022-11-27T04:37:18.552Z,92894.84
2022-11-27T04:39:45.029Z,92904.56
2022-11-27T04:42:11.523Z,92909.41
2022-11-27T04:44:38.352Z,92910.16
2022-11-27T04:47:05.186Z,92911.63
2022-11-27T04:49:31.740Z,92905.28
2022-11-27T04:51:58.265Z,92903.06
2022-11-27T04:54:24.747Z,92910.16
2022-11-27T04:56:51.203Z,92906.63
2022-11-27T04:59:17.755Z,92908.66
2022-11-27T05:01:44.231Z,92915.75
2022-11-27T05:04:10.721Z,92910.88
2022-11-27T05:06:37.175Z,92907.19
2022-11-27T05:09:03.862Z,92908.66
2022-11-27T05:11:31.223Z,92901.63
2022-11-27T05:14:16.789Z,92910.16
2022-11-27T05:16:52.016Z,92903.81
2022-11-27T05:19:20.627Z,92914.84
2022-11-27T05:21:48.382Z,92916.16
2022-11-27T05:24:16.260Z,92907.19
2022-11-27T05:26:43.037Z,92911.28
2022-11-27T05:29:10.679Z,92911.28
2022-11-27T05:31:38.186Z,92909.84
2022-11-27T05:34:05.192Z,92904.25
2022-11-27T05:36:33.212Z,92900.13
2022-11-27T05:39:01.195Z,92907.03
2022-11-27T05:41:27.777Z,92911.88
2022-11-27T05:43:54.283Z,92906.28
2022-11-27T05:46:22.475Z,92908.38
2022-11-27T05:48:49.446Z,92918.22
2022-11-27T05:51:16.576Z,92924.53
2022-11-27T05:53:43.107Z,92932.91
2022-11-27T05:56:12.682Z,92936.44
2022-11-27T05:58:40.634Z,92934.97
2022-11-27T06:01:08.374Z,92937.00
2022-11-27T06:03:35.042Z,92929.38
2022-11-27T06:06:15.828Z,92933.63
2022-11-27T06:08:43.010Z,92930.72
2022-11-27T06:11:12.319Z,92925.13
2022-11-27T06:13:39.018Z,92927.34
2022-11-27T06:16:13.273Z,92928.06
2022-11-27T06:18:39.841Z,92930.84
2022-11-27T06:21:11.951Z,92938.50
2022-11-27T06:23:39.598Z,92937.59
2022-11-27T06:26:19.969Z,92933.63
2022-11-27T06:28:47.855Z,92930.72
2022-11-27T06:31:19.726Z,92932.19
2022-11-27T06:33:47.703Z,92930.56
2022-11-27T06:36:14.701Z,92928.91
2022-11-27T06:38:41.419Z,92922.19
2022-11-27T06:41:10.170Z,92919.53
2022-11-27T06:43:36.851Z,92908.22
2022-11-27T06:46:04.989Z,92911.00
2022-11-27T06:48:32.513Z,92902.78
2022-11-27T06:51:00.755Z,92909.69
2022-11-27T06:53:27.452Z,92909.84
2022-11-27T06:55:53.890Z,92912.91
2022-11-27T06:58:20.344Z,92909.50
2022-11-27T07:00:46.904Z,92902.47
2022-11-27T07:03:13.402Z,92899.69
2022-11-27T07:05:39.836Z,92901.72
2022-11-27T07:08:06.402Z,92898.34
2022-11-27T07:10:35.091Z,92899.69
2022-11-27T07:13:01.992Z,92899.84
2022-11-27T07:15:28.680Z,92897.63
2022-11-27T07:17:55.201Z,92896.72
2022-11-27T07:20:21.690Z,92895.56
2022-11-27T07:22:48.118Z,92895.41
2022-11-27T07:25:14.635Z,92891.31
2022-11-27T07:27:41.152Z,92890.13
2022-11-27T07:30:08.230Z,92892.03
2022-11-27T07:32:34.678Z,92886.47
2022-11-27T07:35:01.159Z,92887.19
2022-11-27T07:37:31.263Z,92876.00
2022-11-27T07:40:03.046Z,92880.28
2022-11-27T07:42:37.980Z,92872.50
2022-11-27T07:45:06.948Z,92875.72
2022-11-27T07:47:33.423Z,92867.06
2022-11-27T07:50:00.552Z,92874.56
2022-11-27T07:52:27.407Z,92865.59
2022-11-27T07:54:54.252Z,92863.81
2022-11-27T07:57:20.834Z,92871.44
2022-11-27T07:59:47.844Z,92877.19
2022-11-27T08:02:15.040Z,92868.97
2022-11-27T08:04:41.767Z,92873.06
2022-11-27T08:07:08.557Z,92870.13
2022-11-27T08:09:35.112Z,92868.66
2022-11-27T08:12:01.624Z,92869.81
2022-11-27T08:14:28.132Z,92878.34
2022-11-27T08:16:54.677Z,92874.22
2022-11-27T08:19:21.386Z,92879.81
2022-11-27T08:21:47.914Z,92871.28
2022-11-27T08:24:14.381Z,92866.75
2022-11-27T08:26:40.945Z,92871.59
2022-11-27T08:29:07.465Z,92864.56
2022-11-27T08:31:34.169Z,92864.56
2022-11-27T08:34:00.627Z,92864.25
2022-11-27T08:36:27.132Z,92860.69
2022-11-27T08:38:54.274Z,92858.34
2022-11-27T08:41:21.075Z,92860.53
2022-11-27T08:43:47.554Z,92859.41
2022-11-27T08:46:14.149Z,92859.41
2022-11-27T08:48:41.810Z,92859.97
2022-11-27T08:51:10.959Z,92860.13
2022-11-27T08:53:37.992Z,92852.31
2022-11-27T08:56:08.176Z,92844.84
2022-11-27T08:58:34.651Z,92848.94
2022-11-27T09:01:07.815Z,92836.16
2022-11-27T09:03:34.372Z,92836.91
2022-11-27T09:06:00.814Z,92836.47
2022-11-27T09:08:27.247Z,92826.19
2022-11-27T09:10:53.727Z,92825.47
2022-11-27T09:13:20.178Z,92814.00
2022-11-27T09:15:46.648Z,92814.00
2022-11-27T09:18:13.107Z,92816.94
2022-11-27T09:20:39.572Z,92808.72
2022-11-27T09:23:10.096Z,92797.56
2022-11-27T09:25:39.671Z,92790.78
2022-11-27T09:28:06.132Z,92786.81
2022-11-27T09:30:32.572Z,92785.50
2022-11-27T09:32:59.042Z,92771.69
2022-11-27T09:35:25.519Z,92767.59
2022-11-27T09:37:52.015Z,92750.97
2022-11-27T09:40:18.520Z,92759.34
2022-11-27T09:42:54.915Z,92765.25
2022-11-27T09:45:24.078Z,92759.94
2022-11-27T09:47:57.140Z,92759.50
2022-11-27T09:50:28.637Z,92750.25
2022-11-27T09:52:57.815Z,92742.91
2022-11-27T09:55:26.962Z,92741.88
2022-11-27T09:58:07.462Z,92733.66
2022-11-27T10:00:33.962Z,92738.22
2022-11-27T10:03:00.566Z,92725.84
2022-11-27T10:05:36.694Z,92720.59
2022-11-27T10:08:31.955Z,92718.09
2022-11-27T10:11:31.636Z,92708.69
2022-11-27T10:14:17.531Z,92698.38
2022-11-27T10:16:48.123Z,92696.91
2022-11-27T10:19:57.874Z,92692.81
2022-11-27T10:22:47.799Z,92681.16
2022-11-27T10:25:14.211Z,92675.84
2022-11-27T10:28:02.100Z,92676.13
2022-11-27T10:30:31.111Z,92674.69
2022-11-27T10:33:00.266Z,92668.34
2022-11-27T10:35:30.435Z,92672.03
2022-11-27T10:38:06.445Z,92665.41
2022-11-27T10:41:04.963Z,92653.31
2022-11-27T10:43:31.560Z,92639.03
2022-11-27T10:46:10.656Z,92624.72
2022-11-27T10:48:37.201Z,92623.53
2022-11-27T10:51:03.828Z,92611.00
2022-11-27T10:53:36.233Z,92609.94
2022-11-27T10:56:11.545Z,92594.06
2022-11-27T10:58:55.497Z,92588.00
2022-11-27T11:01:23.543Z,92573.41
2022-11-27T11:03:50.171Z,92576.34
2022-11-27T11:06:24.121Z,92549.84
2022-11-27T11:09:19.180Z,92548.38
2022-11-27T11:11:45.748Z,92556.03
2022-11-27T11:14:22.939Z,92553.97
2022-11-27T11:16:50.802Z,92553.22
2022-11-27T11:19:23.526Z,92554.56
2022-11-27T11:21:50.489Z,92553.22
2022-11-27T11:24:36.062Z,92558.81
2022-11-27T11:27:11.350Z,92558.81
2022-11-27T11:29:42.325Z,92570.00
2022-11-27T11:32:39.274Z,92564.41
2022-11-27T11:35:24.706Z,92560.31
2022-11-27T11:37:52.687Z,92562.50
2022-11-27T11:40:28.118Z,92560.44
2022-11-27T11:42:57.350Z,92561.91
2022-11-27T11:48:02.965Z,92548.06
2022-11-27T11:50:38.828Z,92541.13
2022-11-27T11:53:15.361Z,92537.59
2022-11-27T11:56:00.672Z,92532.63
2022-11-27T11:58:48.818Z,92537.47
2022-11-27T12:06:44.667Z,92535.00
2022-11-27T12:09:29.168Z,92516.28
2022-11-27T12:12:11.762Z,92513.59
2022-11-27T12:15:03.930Z,92500.97
2022-11-27T12:17:45.371Z,92493.31
2022-11-27T12:20:21.152Z,92495.84
2022-11-27T12:22:57.115Z,92491.69
2022-11-27T12:25:37.294Z,92487.16
2022-11-27T12:28:38.073Z,92479.06
2022-11-27T12:31:23.133Z,92478.03
2022-11-27T12:34:01.360Z,92465.41
2022-11-27T12:36:54.032Z,92462.00
2022-11-27T12:39:50.945Z,92456.41
2022-11-27T12:42:45.360Z,92453.75
2022-11-27T12:45:34.373Z,92453.47
2022-11-27T12:48:19.500Z,92448.47
2022-11-27T12:51:04.024Z,92444.38
2022-11-27T12:53:36.655Z,92443.78
2022-11-27T12:56:07.817Z,92436.97
2022-11-27T12:58:41.060Z,92434.03
2022-11-27T13:01:15.610Z,92439.16
2022-11-27T13:03:46.706Z,92435.88
2022-11-27T13:06:17.695Z,92436.03
2022-11-27T13:09:02.007Z,92424.53
2022-11-27T13:11:34.620Z,92426.25
2022-11-27T13:14:15.495Z,92422.97
2022-11-27T13:16:46.705Z,92416.53
2022-11-27T13:19:22.431Z,92417.53
2022-11-27T13:21:50.436Z,92405.00
2022-11-27T13:24:17.004Z,92400.25
2022-11-27T13:27:00.936Z,92394.66
2022-11-27T13:29:37.432Z,92391.13
2022-11-27T13:32:06.518Z,92381.75
2022-11-27T13:34:36.396Z,92374.34
2022-11-27T13:37:06.844Z,92371.81
2022-11-27T13:39:39.371Z,92363.66
2022-11-27T13:42:16.716Z,92364.66
2022-11-27T13:44:52.345Z,92360.19
2022-11-27T13:47:21.676Z,92349.22
2022-11-27T13:50:00.311Z,92349.34
2022-11-27T13:52:26.983Z,92355.19
2022-11-27T13:54:53.378Z,92352.41
2022-11-27T13:57:21.337Z,92358.13
2022-11-27T14:00:03.824Z,92356.06
2022-11-27T14:02:47.419Z,92351.19
2022-11-27T14:05:17.555Z,92350.00
2022-11-27T14:07:49.491Z,92351.56
2022-11-27T14:10:25.926Z,92339.16
2022-11-27T14:13:05.258Z,92340.84
2022-11-27T14:15:35.464Z,92341.09
2022-11-27T14:18:25.175Z,92341.34
2022-11-27T14:20:56.706Z,92341.63
2022-11-27T14:23:33.890Z,92353.06
2022-11-27T14:26:03.353Z,92356.00
2022-11-27T14:28:30.875Z,92356.25
2022-11-27T14:30:59.959Z,92356.50
2022-11-27T14:33:27.606Z,92351.16
2022-11-27T14:35:59.913Z,92359.06
2022-11-27T14:38:28.422Z,92361.38
2022-11-27T14:41:08.703Z,92358.09
2022-11-27T14:43:35.280Z,92357.59
2022-11-27T14:46:04.436Z,92367.47
2022-11-27T14:48:44.778Z,92360.63
2022-11-27T14:51:20.846Z,92357.94
2022-11-27T14:53:50.783Z,92358.06
2022-11-27T14:56:18.098Z,92353.34
2022-11-27T14:58:50.171Z,92357.47
2022-11-27T15:01:27.092Z,92370.84
2022-11-27T15:04:02.450Z,92368.19
2022-11-27T15:06:35.154Z,92375.38
2022-11-27T15:09:29.860Z,92371.34
2022-11-27T15:11:56.896Z,92370.25
2022-11-27T15:14:25.512Z,92374.03
2022-11-27T15:16:53.775Z,92369.38
2022-11-27T15:19:37.108Z,92369.38
2022-11-27T15:22:03.963Z,92366.47
2022-11-27T15:24:36.203Z,92372.06
2022-11-27T15:27:14.674Z,92374.88
2022-11-27T15:29:46.064Z,92374.13
2022-11-27T15:32:23.693Z,92374.25
2022-11-27T15:34:51.956Z,92369.38
2022-11-27T15:37:21.924Z,92367.94
2022-11-27T15:39:54.165Z,92367.19
2022-11-27T15:42:21.610Z,92363.66
2022-11-27T15:44:52.470Z,92376.94
2022-11-27T15:47:40.205Z,92365.00
2022-11-27T15:50:07.435Z,92370.63
2022-11-27T15:52:33.992Z,92365.00
2022-11-27T15:55:00.486Z,92358.53
2022-11-27T15:57:26.958Z,92367.44
2022-11-27T15:59:53.425Z,92358.78
2022-11-27T16:02:19.996Z,92360.00
2022-11-27T16:04:46.480Z,92355.75
2022-11-27T16:07:12.979Z,92352.84
2022-11-27T16:09:39.854Z,92356.25
2022-11-27T16:12:06.843Z,92350.53
2022-11-27T16:14:33.370Z,92345.53
2022-11-27T16:17:01.285Z,92345.53
2022-11-27T16:19:27.856Z,92344.06
2022-11-27T16:21:54.781Z,92341.88
2022-11-27T16:24:21.404Z,92334.19
2022-11-27T16:26:48.016Z,92338.47
2022-11-27T16:29:14.629Z,92335.78
2022-11-27T16:31:41.247Z,92331.63
2022-11-27T16:34:07.783Z,92323.34
2022-11-27T16:36:34.596Z,92320.78
2022-11-27T16:39:01.247Z,92315.53
2022-11-27T16:41:27.779Z,92310.25
2022-11-27T16:43:56.608Z,92297.94
2022-11-27T16:46:28.351Z,92296.72
2022-11-27T16:48:56.736Z,92292.34
2022-11-27T16:51:25.637Z,92281.34
2022-11-27T16:53:54.910Z,92286.72
2022-11-27T16:56:24.186Z,92286.50
2022-11-27T16:58:51.508Z,92297.47
2022-11-27T17:01:23.264Z,92282.13
2022-11-27T17:03:50.384Z,92285.03
2022-11-27T17:06:25.072Z,92279.56
2022-11-27T17:08:54.135Z,92286.72
2022-11-27T17:11:24.704Z,92283.91
2022-11-27T17:13:52.771Z,92285.28
2022-11-27T17:16:19.867Z,92279.66
2022-11-27T17:18:46.656Z,92286.84
2022-11-27T17:21:33.727Z,92281.50
2022-11-27T17:24:03.002Z,92285.75
2022-11-27T17:26:30.732Z,92285.75
2022-11-27T17:28:59.473Z,92285.88
2022-11-27T17:31:32.746Z,92284.53
2022-11-27T17:33:59.874Z,92286.00
2022-11-27T17:36:28.108Z,92294.16
2022-11-27T17:38:55.988Z,92279.91
2022-11-27T17:41:22.898Z,92282.34
2022-11-27T17:43:50.019Z,92279.19
2022-11-27T17:46:22.213Z,92287.59
2022-11-27T17:48:49.406Z,92287.50
2022-11-27T17:51:16.408Z,92281.66
2022-11-27T17:53:42.914Z,92279.47
2022-11-27T17:56:12.176Z,92283.47
2022-11-27T17:58:39.216Z,92284.22
2022-11-27T18:01:07.966Z,92281.28
2022-11-27T18:03:34.659Z,92285.34
2022-11-27T18:06:05.308Z,92272.88
2022-11-27T18:08:32.435Z,92262.28
2022-11-27T18:11:05.375Z,92260.97
2022-11-27T18:13:32.575Z,92260.22
2022-11-27T18:16:06.078Z,92249.03
2022-11-27T18:18:32.693Z,92243.41
2022-11-27T18:20:59.686Z,92238.44
2022-11-27T18:23:26.188Z,92246.22
2022-11-27T18:25:52.661Z,92233.16
2022-11-27T18:28:19.094Z,92228.53
2022-11-27T18:30:45.536Z,92217.53
2022-11-27T18:33:12.007Z,92221.91
2022-11-27T18:35:42.510Z,92222.25
2022-11-27T18:38:09.155Z,92226.53
2022-11-27T18:40:39.680Z,92226.75
2022-11-27T18:43:06.122Z,92233.22
2022-11-27T18:45:35.732Z,92227.00
2022-11-27T18:48:02.642Z,92224.31
2022-11-27T18:50:29.977Z,92227.84
2022-11-27T18:52:56.668Z,92228.72
2022-11-27T18:55:23.146Z,92230.16
2022-11-27T18:57:49.658Z,92226.22
2022-11-27T19:00:17.323Z,92215.13
2022-11-27T19:02:43.854Z,92209.63
2022-11-27T19:05:10.332Z,92213.25
2022-11-27T19:07:36.952Z,92215.47
2022-11-27T19:10:03.778Z,92216.91
2022-11-27T19:12:30.268Z,92218.38
2022-11-27T19:14:56.721Z,92218.38
2022-11-27T19:17:26.703Z,92224.72
2022-11-27T19:19:55.875Z,92216.41
2022-11-27T19:22:22.381Z,92208.84
2022-11-27T19:24:48.838Z,92222.75
2022-11-27T19:27:15.362Z,92225.44
2022-11-27T19:29:41.950Z,92223.78
2022-11-27T19:32:08.720Z,92223.78
2022-11-27T19:34:35.258Z,92224.47
2022-11-27T19:37:01.823Z,92227.91
2022-11-27T19:39:28.855Z,92226.47
2022-11-27T19:41:57.686Z,92226.34
2022-11-27T19:44:24.193Z,92233.31
2022-11-27T19:46:50.647Z,92219.28
2022-11-27T19:49:17.933Z,92223.66
2022-11-27T19:51:45.167Z,92221.06
2022-11-27T19:54:13.207Z,92217.03
2022-11-27T19:56:42.197Z,92226.91
2022-11-27T19:59:10.279Z,92226.78
2022-11-27T20:01:38.095Z,92225.22
2022-11-27T20:04:05.551Z,92223.78
2022-11-27T20:06:32.764Z,92222.28
2022-11-27T20:09:00.798Z,92230.81
2022-11-27T20:11:34.191Z,92216.69
2022-11-27T20:14:02.152Z,92220.84
2022-11-27T20:16:28.667Z,92219.38
2022-11-27T20:18:55.741Z,92208.16
2022-11-27T20:21:24.475Z,92199.66
2022-11-27T20:23:52.372Z,92200.38
2022-11-27T20:26:22.344Z,92192.06
2022-11-27T20:28:49.970Z,92190.63
2022-11-27T20:31:22.280Z,92187.69
2022-11-27T20:33:48.879Z,92181.34
2022-11-27T20:36:18.093Z,92183.34
2022-11-27T20:38:45.261Z,92177.00
2022-11-27T20:41:14.667Z,92167.22
2022-11-27T20:43:43.003Z,92169.91
2022-11-27T20:46:12.012Z,92161.41
2022-11-27T20:48:39.124Z,92163.34
2022-11-27T20:51:15.520Z,92165.31
2022-11-27T20:53:43.338Z,92160.31
2022-11-27T20:56:11.899Z,92155.19
2022-11-27T20:58:40.467Z,92149.47
2022-11-27T21:01:14.357Z,92146.56
2022-11-27T21:03:41.026Z,92146.56
2022-11-27T21:06:07.806Z,92139.50
2022-11-27T21:08:34.522Z,92133.66
2022-11-27T21:11:15.140Z,92137.81
2022-11-27T21:13:42.044Z,92126.63
2022-11-27T21:16:13.401Z,92127.81
2022-11-27T21:18:40.595Z,92127.81
2022-11-27T21:21:09.584Z,92124.94
2022-11-27T21:23:36.122Z,92114.94
2022-11-27T21:26:02.603Z,92110.56
2022-11-27T21:28:30.678Z,92114.75
2022-11-27T21:31:17.750Z,92110.47
2022-11-27T21:33:53.279Z,92115.50
2022-11-27T21:36:21.332Z,92111.69
2022-11-27T21:38:48.136Z,92106.22
2022-11-27T21:41:17.318Z,92107.78
2022-11-27T21:43:44.914Z,92093.88
2022-11-27T21:46:14.283Z,92098.13
2022-11-27T21:48:41.019Z,92102.59
2022-11-27T21:51:12.623Z,92085.91
2022-11-27T21:53:40.593Z,92080.28
2022-11-27T21:56:08.268Z,92079.06
2022-11-27T21:58:35.150Z,92079.28
2022-11-27T22:01:03.397Z,92066.84
2022-11-27T22:03:29.865Z,92071.22
2022-11-27T22:06:01.601Z,92069.88
2022-11-27T22:08:29.104Z,92060.94
2022-11-27T22:10:55.951Z,92063.16
2022-11-27T22:13:23.369Z,92052.13
2022-11-27T22:15:49.903Z,92046.75
2022-11-27T22:18:16.391Z,92057.44
2022-11-27T22:20:42.902Z,92044.28
2022-11-27T22:23:09.351Z,92043.75
2022-11-27T22:25:35.802Z,92042.28
2022-11-27T22:28:02.249Z,92035.47
2022-11-27T22:30:28.788Z,92032.03
2022-11-27T22:32:56.315Z,92037.63
2022-11-27T22:35:23.159Z,92047.38
2022-11-27T22:37:53.099Z,92039.19
2022-11-27T22:40:20.082Z,92039.28
2022-11-27T22:42:46.567Z,92035.34
2022-11-27T22:45:13.227Z,92031.22
2022-11-27T22:47:39.673Z,92026.94
2022-11-27T22:50:06.622Z,92017.19
2022-11-27T22:52:33.090Z,92012.28
2022-11-27T22:54:59.526Z,92017.25
2022-11-27T22:57:25.983Z,92018.00
2022-11-27T22:59:52.440Z,92008.94
2022-11-27T23:02:19.038Z,92008.94
2022-11-27T23:04:45.558Z,92014.78
2022-11-27T23:07:12.077Z,92001.06
2022-11-27T23:09:38.597Z,91998.91
2022-11-27T23:12:05.357Z,91996.91
2022-11-27T23:14:31.863Z,92002.72
2022-11-27T23:16:58.818Z,91998.66
2022-11-27T23:19:25.407Z,92000.22
2022-11-27T23:21:51.982Z,91998.25
2022-11-27T23:24:18.438Z,91992.13
2022-11-27T23:26:45.852Z,92000.66
2022-11-27T23:29:14.010Z,91989.94
2022-11-27T23:31:40.579Z,91997.31
2022-11-27T23:34:10.436Z,91995.66
2022-11-27T23:36:37.267Z,91992.56
2022-11-27T23:39:06.510Z,91979.56
2022-11-27T23:41:33.306Z,91995.44
2022-11-27T23:43:59.861Z,91980.41
2022-11-27T23:46:29.395Z,91977.38
2022-11-27T23:48:57.746Z,91968.66
2022-11-27T23:51:26.870Z,91969.91
2022-11-27T23:53:54.041Z,91966.28
2022-11-27T23:56:24.099Z,91965.31
2022-11-27T23:58:51.292Z,91958.28
